This is the latest recevied weather packets stored in our database for station/object R6DH-11. If no packets are shown the sender has not sent any weather packets the latest 10 day(s).
| Time | Temp. | Humidity | Pressure | Rain* | Wind** | Luminosity | Snow |
|---|---|---|---|---|---|---|---|
| 1777368908 | 16.11° C | 25% | 1018.4 hPa | - | - | - | - |
| 1777368007 | 17.78° C | 20% | 1018.4 hPa | - | - | - | - |
| 1777367117 | 18.89° C | 22% | 1018.4 hPa | - | - | - | - |
| 1777366216 | 17.22° C | 22% | 1018.7 hPa | - | - | - | - |
| 1777365316 | 18.33° C | 21% | 1018.7 hPa | - | - | - | - |
| 1777363516 | 17.22° C | 23% | 1018.9 hPa | - | - | - | - |
| 1777362616 | 17.22° C | 23% | 1019 hPa | - | - | - | - |
| 1777361716 | 15.56° C | 23% | 1019.1 hPa | - | - | - | - |
| 1777360816 | 17.78° C | 23% | 1019.2 hPa | - | - | - | - |
| 1777359916 | 17.22° C | 24% | 1019.3 hPa | - | - | - | - |
| 1777359015 | 14.44° C | 27% | 1017.7 hPa | - | - | - | - |
| 1777357215 | 15° C | 30% | 1019.2 hPa | - | - | - | - |
| 1777356315 | 15.56° C | 33% | 1019 hPa | - | - | - | - |
| 1777354515 | 13.33° C | 45% | 1019.2 hPa | - | - | - | - |
| 1777353615 | 12.22° C | 48% | 1019.2 hPa | - | - | - | - |
| 1777351814 | 9.44° C | 51% | 1017.9 hPa | - | - | - | - |
| 1777350914 | 9.44° C | 52% | 1019.5 hPa | - | - | - | - |
| 1777350014 | 8.89° C | 55% | 1019.4 hPa | - | - | - | - |
| 1777349114 | 7.78° C | 59% | 1019.4 hPa | - | - | - | - |
| 1777348214 | 6.11° C | 60% | 1019.3 hPa | - | - | - | - |
| 1777345516 | 3.33° C | 66% | 1019.1 hPa | - | - | - | - |
| 1777344616 | 2.78° C | 66% | 1018.9 hPa | - | - | - | - |
| 1777343716 | 2.22° C | 68% | 1018.8 hPa | - | - | - | - |
| 1777342816 | 1.67° C | 69% | 1018.7 hPa | - | - | - | - |
| 1777341916 | 1.67° C | 68% | 1018.8 hPa | - | - | - | - |
* Rain since midnight (hover to see other rain measurements)
** Current wind speed in m/s (hover to see current wind gust speed)